X  Zatvori METAR podaci zračne luke     LDPL Pula Airport
Temperatura
31°C Temperatura
18°C Točka rosišta
46% Vlaga



Vjetar
14 KM/S
9 MPS
4 M/S
8 Čvorovi



280°
Zapad
Trenutna situacija

Vedro Vedro
Tlak zraka 1011.92 (hPa) - 29.88 (inHg)
Vidljivost 6.2 (milje) - 10 (km)
Zračna luka
Kôd zračne luke LDPL

Lokacija: Pula Airport
Udaljenost: 39 (km)

Metar:
LDPL 291500Z 28008KT CAVOK 31/18 Q1012 NOSIG

Vrijeme: 29-07-2021 17:00 CEST